sensor_id;sensor_type;location;lat;lon;timestamp;P1;durP1;ratioP1;P2;durP2;ratioP2
79668;SDS011;69136;52.614;6.976;2023-05-09T00:00:48;4.18;;;3.78;;
79668;SDS011;69136;52.614;6.976;2023-05-09T00:03:32;4.47;;;3.90;;
79668;SDS011;69136;52.614;6.976;2023-05-09T00:06:17;3.97;;;3.58;;
79668;SDS011;69136;52.614;6.976;2023-05-09T00:09:02;4.40;;;3.90;;
79668;SDS011;69136;52.614;6.976;2023-05-09T00:11:47;3.88;;;3.47;;
79668;SDS011;69136;52.614;6.976;2023-05-09T00:14:31;4.93;;;4.07;;
79668;SDS011;69136;52.614;6.976;2023-05-09T00:17:16;4.35;;;3.95;;
79668;SDS011;69136;52.614;6.976;2023-05-09T00:20:01;3.75;;;3.35;;
79668;SDS011;69136;52.614;6.976;2023-05-09T00:22:48;4.20;;;3.72;;
79668;SDS011;69136;52.614;6.976;2023-05-09T00:25:32;4.00;;;3.60;;
79668;SDS011;69136;52.614;6.976;2023-05-09T00:28:16;3.58;;;3.28;;
79668;SDS011;69136;52.614;6.976;2023-05-09T00:31:00;4.25;;;3.85;;
79668;SDS011;69136;52.614;6.976;2023-05-09T00:33:46;4.35;;;3.55;;
79668;SDS011;69136;52.614;6.976;2023-05-09T00:36:30;3.90;;;3.50;;
79668;SDS011;69136;52.614;6.976;2023-05-09T00:39:15;3.90;;;3.50;;
79668;SDS011;69136;52.614;6.976;2023-05-09T00:41:59;3.45;;;3.15;;
79668;SDS011;69136;52.614;6.976;2023-05-09T00:44:42;3.97;;;3.58;;
79668;SDS011;69136;52.614;6.976;2023-05-09T00:47:27;3.60;;;3.30;;
79668;SDS011;69136;52.614;6.976;2023-05-09T00:50:11;4.13;;;3.72;;
79668;SDS011;69136;52.614;6.976;2023-05-09T00:52:56;3.83;;;3.42;;
79668;SDS011;69136;52.614;6.976;2023-05-09T00:55:41;4.03;;;3.53;;
79668;SDS011;69136;52.614;6.976;2023-05-09T00:58:25;4.20;;;3.65;;
79668;SDS011;69136;52.614;6.976;2023-05-09T01:01:09;2.92;;;2.63;;
79668;SDS011;69136;52.614;6.976;2023-05-09T01:03:54;3.72;;;3.42;;
79668;SDS011;69136;52.614;6.976;2023-05-09T01:13:08;4.43;;;3.80;;
79668;SDS011;69136;52.614;6.976;2023-05-09T01:16:01;4.13;;;3.50;;
79668;SDS011;69136;52.614;6.976;2023-05-09T01:18:54;3.95;;;3.55;;
79668;SDS011;69136;52.614;6.976;2023-05-09T01:21:48;3.47;;;3.15;;
79668;SDS011;69136;52.614;6.976;2023-05-09T01:24:38;4.45;;;3.45;;
79668;SDS011;69136;52.614;6.976;2023-05-09T01:27:46;3.55;;;3.25;;
79668;SDS011;69136;52.614;6.976;2023-05-09T01:30:34;3.55;;;3.25;;
79668;SDS011;69136;52.614;6.976;2023-05-09T01:33:20;3.88;;;3.58;;
79668;SDS011;69136;52.614;6.976;2023-05-09T01:36:07;3.58;;;3.28;;
79668;SDS011;69136;52.614;6.976;2023-05-09T01:39:00;4.10;;;3.47;;
79668;SDS011;69136;52.614;6.976;2023-05-09T01:41:45;3.72;;;3.25;;
79668;SDS011;69136;52.614;6.976;2023-05-09T01:44:31;3.35;;;3.05;;
79668;SDS011;69136;52.614;6.976;2023-05-09T01:47:18;3.88;;;3.40;;
79668;SDS011;69136;52.614;6.976;2023-05-09T01:50:04;3.85;;;3.45;;
79668;SDS011;69136;52.614;6.976;2023-05-09T01:52:52;3.33;;;3.03;;
79668;SDS011;69136;52.614;6.976;2023-05-09T01:55:38;3.55;;;3.25;;
79668;SDS011;69136;52.614;6.976;2023-05-09T01:58:24;3.20;;;2.90;;
79668;SDS011;69136;52.614;6.976;2023-05-09T02:01:08;3.45;;;3.15;;
79668;SDS011;69136;52.614;6.976;2023-05-09T02:03:53;3.88;;;3.58;;
79668;SDS011;69136;52.614;6.976;2023-05-09T02:06:37;3.58;;;3.28;;
79668;SDS011;69136;52.614;6.976;2023-05-09T02:09:21;4.05;;;3.20;;
79668;SDS011;69136;52.614;6.976;2023-05-09T02:12:05;3.70;;;3.40;;
79668;SDS011;69136;52.614;6.976;2023-05-09T02:14:50;4.03;;;3.20;;
79668;SDS011;69136;52.614;6.976;2023-05-09T02:17:34;3.80;;;3.40;;
79668;SDS011;69136;52.614;6.976;2023-05-09T02:20:18;3.42;;;3.13;;
79668;SDS011;69136;52.614;6.976;2023-05-09T02:23:02;4.18;;;3.03;;
79668;SDS011;69136;52.614;6.976;2023-05-09T02:25:47;3.38;;;3.08;;
79668;SDS011;69136;52.614;6.976;2023-05-09T02:28:31;3.25;;;2.95;;
79668;SDS011;69136;52.614;6.976;2023-05-09T02:31:15;3.50;;;3.10;;
79668;SDS011;69136;52.614;6.976;2023-05-09T02:34:02;3.30;;;2.83;;
79668;SDS011;69136;52.614;6.976;2023-05-09T02:36:48;3.35;;;3.05;;
79668;SDS011;69136;52.614;6.976;2023-05-09T02:39:32;3.58;;;3.15;;
79668;SDS011;69136;52.614;6.976;2023-05-09T02:42:21;3.72;;;3.38;;
79668;SDS011;69136;52.614;6.976;2023-05-09T02:45:08;3.67;;;3.33;;
79668;SDS011;69136;52.614;6.976;2023-05-09T02:47:53;3.65;;;3.10;;
79668;SDS011;69136;52.614;6.976;2023-05-09T02:50:39;3.40;;;3.10;;
79668;SDS011;69136;52.614;6.976;2023-05-09T02:53:26;3.78;;;3.00;;
79668;SDS011;69136;52.614;6.976;2023-05-09T02:56:11;3.67;;;3.30;;
79668;SDS011;69136;52.614;6.976;2023-05-09T02:58:55;3.33;;;3.00;;
79668;SDS011;69136;52.614;6.976;2023-05-09T03:01:39;3.78;;;3.38;;
79668;SDS011;69136;52.614;6.976;2023-05-09T03:04:25;3.50;;;3.20;;
79668;SDS011;69136;52.614;6.976;2023-05-09T03:07:10;3.47;;;3.13;;
79668;SDS011;69136;52.614;6.976;2023-05-09T03:09:54;3.97;;;3.45;;
79668;SDS011;69136;52.614;6.976;2023-05-09T03:12:39;3.33;;;3.03;;
79668;SDS011;69136;52.614;6.976;2023-05-09T03:15:26;3.33;;;2.95;;
79668;SDS011;69136;52.614;6.976;2023-05-09T03:18:10;3.22;;;2.90;;
79668;SDS011;69136;52.614;6.976;2023-05-09T03:20:55;3.42;;;3.13;;
79668;SDS011;69136;52.614;6.976;2023-05-09T03:23:39;3.88;;;3.33;;
79668;SDS011;69136;52.614;6.976;2023-05-09T03:26:23;5.32;;;3.80;;
79668;SDS011;69136;52.614;6.976;2023-05-09T03:29:08;3.60;;;3.30;;
79668;SDS011;69136;52.614;6.976;2023-05-09T03:31:52;5.85;;;3.78;;
79668;SDS011;69136;52.614;6.976;2023-05-09T03:34:37;3.65;;;3.33;;
79668;SDS011;69136;52.614;6.976;2023-05-09T03:37:22;3.30;;;3.00;;
79668;SDS011;69136;52.614;6.976;2023-05-09T03:40:06;4.80;;;3.40;;
79668;SDS011;69136;52.614;6.976;2023-05-09T03:42:57;3.55;;;3.25;;
79668;SDS011;69136;52.614;6.976;2023-05-09T03:45:42;5.47;;;3.65;;
79668;SDS011;69136;52.614;6.976;2023-05-09T03:48:28;4.43;;;3.10;;
79668;SDS011;69136;52.614;6.976;2023-05-09T03:51:12;4.32;;;3.45;;
79668;SDS011;69136;52.614;6.976;2023-05-09T03:53:58;3.70;;;3.30;;
79668;SDS011;69136;52.614;6.976;2023-05-09T03:56:43;3.75;;;3.38;;
79668;SDS011;69136;52.614;6.976;2023-05-09T03:59:27;4.22;;;3.83;;
79668;SDS011;69136;52.614;6.976;2023-05-09T04:02:11;4.72;;;4.10;;
79668;SDS011;69136;52.614;6.976;2023-05-09T04:04:56;3.80;;;3.38;;
79668;SDS011;69136;52.614;6.976;2023-05-09T04:07:42;3.95;;;3.30;;
79668;SDS011;69136;52.614;6.976;2023-05-09T04:10:26;3.75;;;3.42;;
79668;SDS011;69136;52.614;6.976;2023-05-09T04:13:12;4.90;;;3.60;;
79668;SDS011;69136;52.614;6.976;2023-05-09T04:15:56;4.10;;;3.60;;
79668;SDS011;69136;52.614;6.976;2023-05-09T04:18:41;4.72;;;4.05;;
79668;SDS011;69136;52.614;6.976;2023-05-09T04:21:25;5.35;;;4.00;;
79668;SDS011;69136;52.614;6.976;2023-05-09T04:24:13;4.80;;;3.90;;
79668;SDS011;69136;52.614;6.976;2023-05-09T04:27:03;5.82;;;4.85;;
79668;SDS011;69136;52.614;6.976;2023-05-09T04:29:47;6.45;;;4.85;;
79668;SDS011;69136;52.614;6.976;2023-05-09T04:32:32;9.05;;;5.78;;
79668;SDS011;69136;52.614;6.976;2023-05-09T04:35:18;7.13;;;4.45;;
79668;SDS011;69136;52.614;6.976;2023-05-09T04:38:04;8.90;;;4.88;;
79668;SDS011;69136;52.614;6.976;2023-05-09T04:40:48;5.20;;;4.32;;
79668;SDS011;69136;52.614;6.976;2023-05-09T04:43:33;6.65;;;4.55;;
79668;SDS011;69136;52.614;6.976;2023-05-09T04:46:17;5.72;;;4.35;;
79668;SDS011;69136;52.614;6.976;2023-05-09T04:49:02;5.93;;;4.55;;
79668;SDS011;69136;52.614;6.976;2023-05-09T04:51:46;6.35;;;4.68;;
79668;SDS011;69136;52.614;6.976;2023-05-09T04:54:30;6.97;;;4.38;;
79668;SDS011;69136;52.614;6.976;2023-05-09T04:57:14;5.15;;;4.25;;
79668;SDS011;69136;52.614;6.976;2023-05-09T05:00:00;8.93;;;4.95;;
79668;SDS011;69136;52.614;6.976;2023-05-09T05:02:44;8.55;;;4.63;;
79668;SDS011;69136;52.614;6.976;2023-05-09T05:05:28;6.07;;;4.45;;
79668;SDS011;69136;52.614;6.976;2023-05-09T05:08:12;5.65;;;4.80;;
79668;SDS011;69136;52.614;6.976;2023-05-09T05:10:58;11.45;;;5.70;;
79668;SDS011;69136;52.614;6.976;2023-05-09T05:13:42;7.35;;;4.75;;
79668;SDS011;69136;52.614;6.976;2023-05-09T05:16:27;6.78;;;3.92;;
79668;SDS011;69136;52.614;6.976;2023-05-09T05:19:12;9.45;;;5.15;;
79668;SDS011;69136;52.614;6.976;2023-05-09T05:21:58;10.50;;;6.15;;
79668;SDS011;69136;52.614;6.976;2023-05-09T05:24:43;7.53;;;6.10;;
79668;SDS011;69136;52.614;6.976;2023-05-09T05:27:28;8.88;;;6.18;;
79668;SDS011;69136;52.614;6.976;2023-05-09T05:30:13;15.05;;;6.88;;
79668;SDS011;69136;52.614;6.976;2023-05-09T05:32:59;11.05;;;7.18;;
79668;SDS011;69136;52.614;6.976;2023-05-09T05:35:44;8.38;;;6.57;;
79668;SDS011;69136;52.614;6.976;2023-05-09T05:38:28;8.90;;;6.55;;
79668;SDS011;69136;52.614;6.976;2023-05-09T05:41:14;9.30;;;6.50;;
79668;SDS011;69136;52.614;6.976;2023-05-09T05:43:59;10.05;;;6.50;;
79668;SDS011;69136;52.614;6.976;2023-05-09T05:46:43;16.83;;;7.88;;
79668;SDS011;69136;52.614;6.976;2023-05-09T05:49:28;10.38;;;7.22;;
79668;SDS011;69136;52.614;6.976;2023-05-09T05:52:12;9.95;;;7.57;;
79668;SDS011;69136;52.614;6.976;2023-05-09T05:54:56;11.93;;;8.27;;
79668;SDS011;69136;52.614;6.976;2023-05-09T05:57:41;13.23;;;7.85;;
79668;SDS011;69136;52.614;6.976;2023-05-09T06:00:30;9.52;;;7.65;;
79668;SDS011;69136;52.614;6.976;2023-05-09T06:03:20;10.23;;;7.55;;
79668;SDS011;69136;52.614;6.976;2023-05-09T06:06:13;10.00;;;7.30;;
79668;SDS011;69136;52.614;6.976;2023-05-09T06:08:57;12.23;;;8.40;;
79668;SDS011;69136;52.614;6.976;2023-05-09T06:11:41;11.40;;;8.25;;
79668;SDS011;69136;52.614;6.976;2023-05-09T06:14:25;10.77;;;8.68;;
79668;SDS011;69136;52.614;6.976;2023-05-09T06:17:10;12.38;;;8.98;;
79668;SDS011;69136;52.614;6.976;2023-05-09T06:19:54;11.63;;;7.93;;
79668;SDS011;69136;52.614;6.976;2023-05-09T06:22:38;11.93;;;8.50;;
79668;SDS011;69136;52.614;6.976;2023-05-09T06:25:22;14.00;;;9.50;;
79668;SDS011;69136;52.614;6.976;2023-05-09T06:28:06;11.40;;;9.23;;
79668;SDS011;69136;52.614;6.976;2023-05-09T06:30:50;12.35;;;9.38;;
79668;SDS011;69136;52.614;6.976;2023-05-09T06:33:34;13.35;;;8.90;;
79668;SDS011;69136;52.614;6.976;2023-05-09T06:36:18;11.27;;;9.10;;
79668;SDS011;69136;52.614;6.976;2023-05-09T06:39:02;13.00;;;9.48;;
79668;SDS011;69136;52.614;6.976;2023-05-09T06:41:47;12.27;;;9.35;;
79668;SDS011;69136;52.614;6.976;2023-05-09T06:44:40;11.55;;;9.07;;
79668;SDS011;69136;52.614;6.976;2023-05-09T06:47:26;12.13;;;8.60;;
79668;SDS011;69136;52.614;6.976;2023-05-09T06:50:10;13.48;;;8.07;;
79668;SDS011;69136;52.614;6.976;2023-05-09T06:52:54;10.45;;;8.27;;
79668;SDS011;69136;52.614;6.976;2023-05-09T06:55:38;11.40;;;8.13;;
79668;SDS011;69136;52.614;6.976;2023-05-09T06:58:22;11.00;;;7.35;;
79668;SDS011;69136;52.614;6.976;2023-05-09T07:01:06;10.18;;;7.45;;
79668;SDS011;69136;52.614;6.976;2023-05-09T07:03:50;8.40;;;7.38;;
79668;SDS011;69136;52.614;6.976;2023-05-09T07:06:34;10.27;;;7.43;;
79668;SDS011;69136;52.614;6.976;2023-05-09T07:09:18;10.77;;;6.72;;
79668;SDS011;69136;52.614;6.976;2023-05-09T07:12:03;7.85;;;6.72;;
79668;SDS011;69136;52.614;6.976;2023-05-09T07:14:47;10.07;;;7.03;;
79668;SDS011;69136;52.614;6.976;2023-05-09T07:17:32;8.32;;;6.40;;
79668;SDS011;69136;52.614;6.976;2023-05-09T07:20:15;8.07;;;6.88;;
79668;SDS011;69136;52.614;6.976;2023-05-09T07:23:01;7.25;;;6.13;;
79668;SDS011;69136;52.614;6.976;2023-05-09T07:25:46;8.20;;;6.55;;
79668;SDS011;69136;52.614;6.976;2023-05-09T07:28:30;7.90;;;5.95;;
79668;SDS011;69136;52.614;6.976;2023-05-09T07:31:14;8.25;;;6.32;;
79668;SDS011;69136;52.614;6.976;2023-05-09T07:33:58;7.95;;;5.80;;
79668;SDS011;69136;52.614;6.976;2023-05-09T07:36:42;6.40;;;5.38;;
79668;SDS011;69136;52.614;6.976;2023-05-09T07:39:26;7.43;;;5.68;;
79668;SDS011;69136;52.614;6.976;2023-05-09T07:42:10;6.95;;;5.95;;
79668;SDS011;69136;52.614;6.976;2023-05-09T07:44:54;6.90;;;6.20;;
79668;SDS011;69136;52.614;6.976;2023-05-09T07:47:39;7.18;;;5.97;;
79668;SDS011;69136;52.614;6.976;2023-05-09T07:50:23;6.25;;;5.65;;
79668;SDS011;69136;52.614;6.976;2023-05-09T07:53:07;5.95;;;5.13;;
79668;SDS011;69136;52.614;6.976;2023-05-09T07:55:51;6.63;;;5.85;;
79668;SDS011;69136;52.614;6.976;2023-05-09T07:58:35;7.35;;;5.57;;
79668;SDS011;69136;52.614;6.976;2023-05-09T08:01:19;5.60;;;4.78;;
79668;SDS011;69136;52.614;6.976;2023-05-09T08:04:03;6.80;;;5.03;;
79668;SDS011;69136;52.614;6.976;2023-05-09T08:06:49;5.57;;;4.45;;
79668;SDS011;69136;52.614;6.976;2023-05-09T08:09:33;5.95;;;5.25;;
79668;SDS011;69136;52.614;6.976;2023-05-09T08:12:17;6.30;;;5.05;;
79668;SDS011;69136;52.614;6.976;2023-05-09T08:15:01;8.95;;;6.22;;
79668;SDS011;69136;52.614;6.976;2023-05-09T08:17:48;5.70;;;4.93;;
79668;SDS011;69136;52.614;6.976;2023-05-09T08:20:33;7.55;;;5.93;;
79668;SDS011;69136;52.614;6.976;2023-05-09T08:23:17;5.55;;;4.88;;
79668;SDS011;69136;52.614;6.976;2023-05-09T08:26:01;5.78;;;5.03;;
79668;SDS011;69136;52.614;6.976;2023-05-09T08:28:45;6.10;;;5.20;;
79668;SDS011;69136;52.614;6.976;2023-05-09T08:31:29;5.82;;;4.72;;
79668;SDS011;69136;52.614;6.976;2023-05-09T08:34:13;5.05;;;4.57;;
79668;SDS011;69136;52.614;6.976;2023-05-09T08:36:58;6.15;;;4.70;;
79668;SDS011;69136;52.614;6.976;2023-05-09T08:39:42;7.13;;;5.95;;
79668;SDS011;69136;52.614;6.976;2023-05-09T08:42:26;6.38;;;5.22;;
79668;SDS011;69136;52.614;6.976;2023-05-09T08:45:11;7.78;;;5.97;;
79668;SDS011;69136;52.614;6.976;2023-05-09T08:48:01;5.72;;;4.68;;
79668;SDS011;69136;52.614;6.976;2023-05-09T08:50:46;5.90;;;5.30;;
79668;SDS011;69136;52.614;6.976;2023-05-09T08:53:30;5.45;;;4.95;;
79668;SDS011;69136;52.614;6.976;2023-05-09T08:56:15;5.30;;;4.80;;
79668;SDS011;69136;52.614;6.976;2023-05-09T08:58:59;6.22;;;4.78;;
79668;SDS011;69136;52.614;6.976;2023-05-09T09:01:44;4.53;;;3.83;;
79668;SDS011;69136;52.614;6.976;2023-05-09T09:04:28;5.43;;;4.53;;
79668;SDS011;69136;52.614;6.976;2023-05-09T09:07:12;5.53;;;4.80;;
79668;SDS011;69136;52.614;6.976;2023-05-09T09:09:57;5.68;;;4.53;;
79668;SDS011;69136;52.614;6.976;2023-05-09T09:12:42;5.63;;;4.50;;
79668;SDS011;69136;52.614;6.976;2023-05-09T09:15:27;6.22;;;4.32;;
79668;SDS011;69136;52.614;6.976;2023-05-09T09:18:21;4.75;;;4.32;;
79668;SDS011;69136;52.614;6.976;2023-05-09T09:21:10;4.97;;;4.28;;
79668;SDS011;69136;52.614;6.976;2023-05-09T09:23:55;6.18;;;4.72;;
79668;SDS011;69136;52.614;6.976;2023-05-09T09:26:44;5.50;;;4.82;;
79668;SDS011;69136;52.614;6.976;2023-05-09T09:29:30;6.00;;;5.10;;
79668;SDS011;69136;52.614;6.976;2023-05-09T09:32:16;5.55;;;4.97;;
79668;SDS011;69136;52.614;6.976;2023-05-09T09:35:05;8.45;;;5.60;;
79668;SDS011;69136;52.614;6.976;2023-05-09T09:37:55;8.60;;;5.55;;
79668;SDS011;69136;52.614;6.976;2023-05-09T09:40:56;6.90;;;5.00;;
79668;SDS011;69136;52.614;6.976;2023-05-09T09:43:44;9.10;;;5.70;;
79668;SDS011;69136;52.614;6.976;2023-05-09T09:46:29;8.02;;;5.78;;
79668;SDS011;69136;52.614;6.976;2023-05-09T09:49:24;11.43;;;7.22;;
79668;SDS011;69136;52.614;6.976;2023-05-09T09:52:09;16.33;;;8.55;;
79668;SDS011;69136;52.614;6.976;2023-05-09T09:54:54;9.63;;;6.40;;
79668;SDS011;69136;52.614;6.976;2023-05-09T09:57:39;8.43;;;6.45;;
79668;SDS011;69136;52.614;6.976;2023-05-09T10:00:27;10.75;;;7.63;;
79668;SDS011;69136;52.614;6.976;2023-05-09T10:03:15;13.05;;;9.20;;
79668;SDS011;69136;52.614;6.976;2023-05-09T10:06:00;12.10;;;8.00;;
79668;SDS011;69136;52.614;6.976;2023-05-09T10:08:44;11.35;;;7.25;;
79668;SDS011;69136;52.614;6.976;2023-05-09T10:11:32;12.68;;;6.95;;
79668;SDS011;69136;52.614;6.976;2023-05-09T10:14:16;11.82;;;7.30;;
79668;SDS011;69136;52.614;6.976;2023-05-09T10:17:02;9.13;;;6.75;;
79668;SDS011;69136;52.614;6.976;2023-05-09T10:19:47;9.40;;;6.45;;
79668;SDS011;69136;52.614;6.976;2023-05-09T10:22:32;8.82;;;6.18;;
79668;SDS011;69136;52.614;6.976;2023-05-09T10:25:21;10.20;;;6.53;;
79668;SDS011;69136;52.614;6.976;2023-05-09T10:28:12;8.65;;;6.47;;
79668;SDS011;69136;52.614;6.976;2023-05-09T10:30:59;9.13;;;6.20;;
79668;SDS011;69136;52.614;6.976;2023-05-09T10:33:56;10.10;;;6.38;;
79668;SDS011;69136;52.614;6.976;2023-05-09T10:36:44;8.95;;;5.82;;
79668;SDS011;69136;52.614;6.976;2023-05-09T10:39:29;9.20;;;5.63;;
79668;SDS011;69136;52.614;6.976;2023-05-09T10:42:13;8.27;;;5.43;;
79668;SDS011;69136;52.614;6.976;2023-05-09T10:44:58;7.07;;;5.63;;
79668;SDS011;69136;52.614;6.976;2023-05-09T10:47:42;9.63;;;5.80;;
79668;SDS011;69136;52.614;6.976;2023-05-09T10:50:27;8.07;;;5.38;;
79668;SDS011;69136;52.614;6.976;2023-05-09T10:53:11;14.95;;;7.75;;
79668;SDS011;69136;52.614;6.976;2023-05-09T10:55:59;15.13;;;8.35;;
79668;SDS011;69136;52.614;6.976;2023-05-09T10:58:45;15.48;;;8.90;;
79668;SDS011;69136;52.614;6.976;2023-05-09T11:04:20;15.93;;;8.77;;
79668;SDS011;69136;52.614;6.976;2023-05-09T11:07:04;17.13;;;9.35;;
79668;SDS011;69136;52.614;6.976;2023-05-09T11:12:57;15.95;;;10.05;;
79668;SDS011;69136;52.614;6.976;2023-05-09T11:18:48;16.10;;;9.65;;
79668;SDS011;69136;52.614;6.976;2023-05-09T11:21:35;14.80;;;9.80;;
79668;SDS011;69136;52.614;6.976;2023-05-09T11:24:19;16.60;;;10.20;;
79668;SDS011;69136;52.614;6.976;2023-05-09T11:29:58;18.60;;;11.00;;
79668;SDS011;69136;52.614;6.976;2023-05-09T11:32:52;18.85;;;11.13;;
79668;SDS011;69136;52.614;6.976;2023-05-09T11:35:41;20.70;;;11.32;;
79668;SDS011;69136;52.614;6.976;2023-05-09T11:38:38;21.40;;;10.82;;
79668;SDS011;69136;52.614;6.976;2023-05-09T11:41:24;22.20;;;11.57;;
79668;SDS011;69136;52.614;6.976;2023-05-09T11:44:28;17.15;;;10.52;;
79668;SDS011;69136;52.614;6.976;2023-05-09T11:47:15;20.92;;;10.85;;
79668;SDS011;69136;52.614;6.976;2023-05-09T11:49:59;17.75;;;11.38;;
79668;SDS011;69136;52.614;6.976;2023-05-09T11:52:44;18.10;;;10.55;;
79668;SDS011;69136;52.614;6.976;2023-05-09T11:55:30;21.00;;;10.93;;
79668;SDS011;69136;52.614;6.976;2023-05-09T11:58:15;18.42;;;10.80;;
79668;SDS011;69136;52.614;6.976;2023-05-09T12:01:00;20.88;;;11.32;;
79668;SDS011;69136;52.614;6.976;2023-05-09T12:03:44;20.60;;;10.82;;
79668;SDS011;69136;52.614;6.976;2023-05-09T12:06:28;19.90;;;10.65;;
79668;SDS011;69136;52.614;6.976;2023-05-09T12:09:13;18.63;;;11.48;;
79668;SDS011;69136;52.614;6.976;2023-05-09T12:11:57;18.45;;;10.80;;
79668;SDS011;69136;52.614;6.976;2023-05-09T12:14:42;19.95;;;10.82;;
79668;SDS011;69136;52.614;6.976;2023-05-09T12:17:26;19.77;;;10.95;;
79668;SDS011;69136;52.614;6.976;2023-05-09T12:20:11;16.90;;;10.75;;
79668;SDS011;69136;52.614;6.976;2023-05-09T12:22:55;20.92;;;11.43;;
79668;SDS011;69136;52.614;6.976;2023-05-09T12:25:46;22.05;;;11.15;;
79668;SDS011;69136;52.614;6.976;2023-05-09T12:28:31;18.38;;;11.85;;
79668;SDS011;69136;52.614;6.976;2023-05-09T12:31:16;19.63;;;11.10;;
79668;SDS011;69136;52.614;6.976;2023-05-09T12:34:00;20.50;;;11.48;;
79668;SDS011;69136;52.614;6.976;2023-05-09T12:36:45;18.33;;;10.77;;
79668;SDS011;69136;52.614;6.976;2023-05-09T12:39:39;19.75;;;11.57;;
79668;SDS011;69136;52.614;6.976;2023-05-09T12:42:27;18.98;;;10.32;;
79668;SDS011;69136;52.614;6.976;2023-05-09T12:45:12;16.95;;;10.75;;
79668;SDS011;69136;52.614;6.976;2023-05-09T12:47:56;20.60;;;11.13;;
79668;SDS011;69136;52.614;6.976;2023-05-09T12:50:45;17.77;;;10.20;;
79668;SDS011;69136;52.614;6.976;2023-05-09T12:53:30;18.17;;;11.27;;
79668;SDS011;69136;52.614;6.976;2023-05-09T12:56:15;17.30;;;11.05;;
79668;SDS011;69136;52.614;6.976;2023-05-09T12:59:00;19.55;;;11.82;;
79668;SDS011;69136;52.614;6.976;2023-05-09T13:01:44;22.42;;;11.82;;
79668;SDS011;69136;52.614;6.976;2023-05-09T13:07:18;19.85;;;13.00;;
79668;SDS011;69136;52.614;6.976;2023-05-09T13:10:02;27.17;;;14.57;;
79668;SDS011;69136;52.614;6.976;2023-05-09T13:12:46;25.15;;;12.93;;
79668;SDS011;69136;52.614;6.976;2023-05-09T13:15:32;24.90;;;13.45;;
79668;SDS011;69136;52.614;6.976;2023-05-09T13:18:16;21.88;;;12.82;;
79668;SDS011;69136;52.614;6.976;2023-05-09T13:21:01;24.55;;;13.43;;
79668;SDS011;69136;52.614;6.976;2023-05-09T13:23:46;21.75;;;14.40;;
79668;SDS011;69136;52.614;6.976;2023-05-09T13:26:32;23.02;;;14.02;;
79668;SDS011;69136;52.614;6.976;2023-05-09T13:29:17;24.35;;;13.93;;
79668;SDS011;69136;52.614;6.976;2023-05-09T13:32:01;21.55;;;12.63;;
79668;SDS011;69136;52.614;6.976;2023-05-09T13:34:46;21.48;;;13.23;;
79668;SDS011;69136;52.614;6.976;2023-05-09T13:37:30;21.48;;;13.35;;
79668;SDS011;69136;52.614;6.976;2023-05-09T13:40:14;20.08;;;13.45;;
79668;SDS011;69136;52.614;6.976;2023-05-09T13:42:58;25.05;;;13.85;;
79668;SDS011;69136;52.614;6.976;2023-05-09T13:45:42;26.10;;;13.52;;
79668;SDS011;69136;52.614;6.976;2023-05-09T13:48:26;20.83;;;13.95;;
79668;SDS011;69136;52.614;6.976;2023-05-09T13:51:11;22.55;;;13.55;;
79668;SDS011;69136;52.614;6.976;2023-05-09T13:53:55;22.48;;;13.43;;
79668;SDS011;69136;52.614;6.976;2023-05-09T13:56:39;19.85;;;12.90;;
79668;SDS011;69136;52.614;6.976;2023-05-09T13:59:23;21.73;;;13.45;;
79668;SDS011;69136;52.614;6.976;2023-05-09T14:02:07;25.95;;;14.70;;
79668;SDS011;69136;52.614;6.976;2023-05-09T14:04:53;21.98;;;15.23;;
79668;SDS011;69136;52.614;6.976;2023-05-09T14:07:37;22.17;;;14.43;;
79668;SDS011;69136;52.614;6.976;2023-05-09T14:10:21;21.58;;;15.18;;
79668;SDS011;69136;52.614;6.976;2023-05-09T14:13:07;20.77;;;14.38;;
79668;SDS011;69136;52.614;6.976;2023-05-09T14:15:51;19.35;;;12.75;;
79668;SDS011;69136;52.614;6.976;2023-05-09T14:18:35;19.95;;;14.25;;
79668;SDS011;69136;52.614;6.976;2023-05-09T14:21:19;21.25;;;13.88;;
79668;SDS011;69136;52.614;6.976;2023-05-09T14:24:03;25.88;;;15.88;;
79668;SDS011;69136;52.614;6.976;2023-05-09T14:26:47;22.98;;;14.73;;
79668;SDS011;69136;52.614;6.976;2023-05-09T14:29:31;20.85;;;15.45;;
79668;SDS011;69136;52.614;6.976;2023-05-09T14:32:15;19.98;;;14.38;;
79668;SDS011;69136;52.614;6.976;2023-05-09T14:35:00;20.10;;;14.23;;
79668;SDS011;69136;52.614;6.976;2023-05-09T14:37:44;22.20;;;14.63;;
79668;SDS011;69136;52.614;6.976;2023-05-09T14:40:28;17.65;;;13.95;;
79668;SDS011;69136;52.614;6.976;2023-05-09T14:43:14;18.77;;;13.32;;
79668;SDS011;69136;52.614;6.976;2023-05-09T14:45:59;18.60;;;12.55;;
79668;SDS011;69136;52.614;6.976;2023-05-09T14:48:43;18.70;;;12.88;;
79668;SDS011;69136;52.614;6.976;2023-05-09T14:51:27;16.92;;;12.77;;
79668;SDS011;69136;52.614;6.976;2023-05-09T14:54:11;18.85;;;12.82;;
79668;SDS011;69136;52.614;6.976;2023-05-09T14:56:55;17.27;;;11.95;;
79668;SDS011;69136;52.614;6.976;2023-05-09T14:59:39;17.42;;;12.75;;
79668;SDS011;69136;52.614;6.976;2023-05-09T15:02:24;15.43;;;12.07;;
79668;SDS011;69136;52.614;6.976;2023-05-09T15:05:08;14.85;;;12.20;;
79668;SDS011;69136;52.614;6.976;2023-05-09T15:07:52;14.68;;;10.93;;
79668;SDS011;69136;52.614;6.976;2023-05-09T15:10:37;19.08;;;12.93;;
79668;SDS011;69136;52.614;6.976;2023-05-09T15:13:20;16.25;;;10.70;;
79668;SDS011;69136;52.614;6.976;2023-05-09T15:16:04;14.98;;;11.20;;
79668;SDS011;69136;52.614;6.976;2023-05-09T15:18:48;15.45;;;10.32;;
79668;SDS011;69136;52.614;6.976;2023-05-09T15:21:32;16.20;;;11.10;;
79668;SDS011;69136;52.614;6.976;2023-05-09T15:24:17;15.23;;;10.90;;
79668;SDS011;69136;52.614;6.976;2023-05-09T15:27:01;13.55;;;10.02;;
79668;SDS011;69136;52.614;6.976;2023-05-09T15:29:46;13.25;;;9.35;;
79668;SDS011;69136;52.614;6.976;2023-05-09T15:32:30;13.73;;;9.43;;
79668;SDS011;69136;52.614;6.976;2023-05-09T15:35:14;12.93;;;9.25;;
79668;SDS011;69136;52.614;6.976;2023-05-09T15:38:00;14.43;;;9.13;;
79668;SDS011;69136;52.614;6.976;2023-05-09T15:40:44;12.75;;;8.70;;
79668;SDS011;69136;52.614;6.976;2023-05-09T15:43:28;11.80;;;8.60;;
79668;SDS011;69136;52.614;6.976;2023-05-09T15:46:12;13.88;;;8.73;;
79668;SDS011;69136;52.614;6.976;2023-05-09T15:48:56;13.50;;;8.73;;
79668;SDS011;69136;52.614;6.976;2023-05-09T15:51:41;11.38;;;8.10;;
79668;SDS011;69136;52.614;6.976;2023-05-09T15:54:26;16.20;;;7.95;;
79668;SDS011;69136;52.614;6.976;2023-05-09T15:57:11;12.25;;;7.40;;
79668;SDS011;69136;52.614;6.976;2023-05-09T15:59:56;10.77;;;7.95;;
79668;SDS011;69136;52.614;6.976;2023-05-09T16:02:40;11.55;;;7.63;;
79668;SDS011;69136;52.614;6.976;2023-05-09T16:05:26;12.20;;;6.95;;
79668;SDS011;69136;52.614;6.976;2023-05-09T16:08:10;12.75;;;7.25;;
79668;SDS011;69136;52.614;6.976;2023-05-09T16:10:55;10.25;;;6.47;;
79668;SDS011;69136;52.614;6.976;2023-05-09T16:13:39;11.75;;;7.03;;
79668;SDS011;69136;52.614;6.976;2023-05-09T16:16:23;7.57;;;6.78;;
79668;SDS011;69136;52.614;6.976;2023-05-09T16:19:07;10.55;;;7.28;;
79668;SDS011;69136;52.614;6.976;2023-05-09T16:21:52;10.73;;;6.47;;
79668;SDS011;69136;52.614;6.976;2023-05-09T16:24:36;9.75;;;6.20;;
79668;SDS011;69136;52.614;6.976;2023-05-09T16:27:20;10.02;;;5.45;;
79668;SDS011;69136;52.614;6.976;2023-05-09T16:30:04;7.20;;;5.22;;
79668;SDS011;69136;52.614;6.976;2023-05-09T16:32:49;8.57;;;5.40;;
79668;SDS011;69136;52.614;6.976;2023-05-09T16:35:33;8.10;;;5.05;;
79668;SDS011;69136;52.614;6.976;2023-05-09T16:38:19;7.70;;;5.28;;
79668;SDS011;69136;52.614;6.976;2023-05-09T16:41:03;10.00;;;5.55;;
79668;SDS011;69136;52.614;6.976;2023-05-09T16:43:47;10.95;;;4.95;;
79668;SDS011;69136;52.614;6.976;2023-05-09T16:46:32;8.05;;;4.97;;